Time;durP1;ratioP1;P1;durP2;ratioP2;P2;SDS_P1;SDS_P2;PMS_P1;PMS_P2;Temp;Humidity;BMP_temperature;BMP_pressure;BME280_temperature;BME280_humidity;BME280_pressure;Samples;Min_cycle;Max_cycle;Signal;HPM_P1;HPM_P2
2022/11/08 00:01:35;;;;;;;3.65;2.40;;;12.80;99.90;;;;;;5093515;28;20074;-78
2022/11/08 00:04:04;;;;;;;4.50;2.47;;;12.60;99.90;;;;;;5093310;28;20734;-78
2022/11/08 00:14:45;;;;;;;2.40;2.20;;;12.50;99.90;;;;;;5093542;28;20104;-78
2022/11/08 00:17:13;;;;;;;2.42;1.98;;;12.50;99.90;;;;;;5092802;28;20032;-79
2022/11/08 00:19:39;;;;;;;3.17;2.00;;;12.60;99.90;;;;;;5093491;28;20085;-78
2022/11/08 00:22:05;;;;;;;2.38;2.03;;;12.60;99.90;;;;;;5092831;28;20543;-78
2022/11/08 00:24:30;;;;;;;3.60;2.25;;;12.70;99.90;;;;;;5093098;28;20059;-78
2022/11/08 00:26:56;;;;;;;3.67;2.60;;;12.60;99.90;;;;;;5093448;28;20024;-78
2022/11/08 00:29:21;;;;;;;2.70;2.15;;;12.60;99.90;;;;;;5092926;28;20505;-78
2022/11/08 00:31:47;;;;;;;3.45;2.22;;;12.60;99.90;;;;;;5092810;28;20023;-78
2022/11/08 00:34:13;;;;;;;2.75;2.38;;;12.80;99.90;;;;;;5092882;28;20103;-78
2022/11/08 00:36:38;;;;;;;3.47;1.95;;;12.30;99.90;;;;;;5092616;28;20078;-78
2022/11/08 00:39:04;;;;;;;3.58;2.42;;;12.20;99.90;;;;;;5092736;28;20092;-78
2022/11/08 00:41:29;;;;;;;4.03;2.25;;;12.50;99.90;;;;;;5092887;28;20027;-78
2022/11/08 00:43:55;;;;;;;3.30;2.45;;;12.30;99.90;;;;;;5092654;28;20036;-78
2022/11/08 00:46:21;;;;;;;2.70;2.30;;;12.30;99.90;;;;;;5092693;28;20516;-77
2022/11/08 00:48:46;;;;;;;4.43;2.35;;;12.20;99.90;;;;;;5093089;28;20067;-78
2022/11/08 00:51:12;;;;;;;3.53;2.00;;;12.20;99.90;;;;;;5092256;28;20026;-78
2022/11/08 00:53:39;;;;;;;3.47;2.35;;;12.20;99.90;;;;;;5092531;28;20089;-78
2022/11/08 00:56:07;;;;;;;2.90;2.20;;;12.10;99.90;;;;;;5092393;28;20024;-77
2022/11/08 00:58:33;;;;;;;3.38;2.50;;;12.10;99.90;;;;;;5092652;28;20031;-78
2022/11/08 01:00:58;;;;;;;2.30;1.88;;;11.90;99.90;;;;;;5092828;28;20024;-77
2022/11/08 01:03:25;;;;;;;3.85;2.47;;;12.20;99.90;;;;;;5092326;28;20035;-78
2022/11/08 01:05:52;;;;;;;4.03;2.33;;;12.10;99.90;;;;;;5091979;28;20024;-78
2022/11/08 01:08:20;;;;;;;3.15;2.30;;;12.20;99.90;;;;;;5092266;28;20020;-77
2022/11/08 01:10:49;;;;;;;3.53;2.38;;;12.20;99.90;;;;;;5092228;28;20024;-78
2022/11/08 01:13:15;;;;;;;2.00;1.80;;;12.10;99.90;;;;;;5092287;28;20020;-78
2022/11/08 01:15:43;;;;;;;3.30;2.28;;;12.20;99.90;;;;;;5092199;28;20024;-78
2022/11/08 01:18:09;;;;;;;4.38;2.33;;;12.30;99.90;;;;;;5076426;28;20078;-78
2022/11/08 01:20:39;;;;;;;3.35;2.20;;;12.50;99.90;;;;;;5071533;28;20116;-78
2022/11/08 01:23:05;;;;;;;2.65;2.45;;;12.50;99.90;;;;;;5071968;28;20043;-78
2022/11/08 01:25:33;;;;;;;2.83;2.35;;;12.70;99.90;;;;;;5072371;28;20025;-78
2022/11/08 01:27:59;;;;;;;3.30;2.33;;;12.70;99.90;;;;;;5071888;28;20510;-78
2022/11/08 01:30:24;;;;;;;5.50;2.80;;;12.40;99.90;;;;;;5071778;28;20036;-78
2022/11/08 01:32:50;;;;;;;4.20;2.70;;;12.30;99.90;;;;;;5071738;28;20032;-78
2022/11/08 01:35:16;;;;;;;4.75;2.80;;;12.20;99.90;;;;;;5078813;28;20174;-78
2022/11/08 01:37:41;;;;;;;3.65;2.60;;;12.50;99.90;;;;;;5092095;28;20078;-78
2022/11/08 01:40:07;;;;;;;5.20;3.05;;;12.30;99.90;;;;;;5092057;28;20468;-78
2022/11/08 01:42:33;;;;;;;4.25;2.95;;;12.40;99.90;;;;;;5091917;28;20035;-78
2022/11/08 01:45:07;;;;;;;4.90;3.20;;;12.60;99.90;;;;;;5091974;28;20020;-77
2022/11/08 01:47:33;;;;;;;4.90;2.90;;;12.50;99.90;;;;;;5092461;28;20028;-78
2022/11/08 01:50:08;;;;;;;5.03;3.03;;;12.50;99.90;;;;;;5091463;28;20052;-78
2022/11/08 01:52:41;;;;;;;3.78;2.78;;;12.50;99.90;;;;;;5091883;28;20036;-78
2022/11/08 01:55:18;;;;;;;4.20;2.80;;;12.50;99.90;;;;;;5091707;28;20018;-78
2022/11/08 01:57:54;;;;;;;5.15;2.97;;;12.40;99.90;;;;;;5091809;28;20502;-77
2022/11/08 02:00:19;;;;;;;4.93;2.72;;;12.30;99.90;;;;;;5092075;28;20016;-78
2022/11/08 02:02:53;;;;;;;4.10;2.65;;;12.30;99.90;;;;;;5091542;28;20035;-77
2022/11/08 02:05:25;;;;;;;4.47;2.80;;;12.60;99.90;;;;;;5091926;28;20020;-78
2022/11/08 02:07:57;;;;;;;4.10;2.70;;;12.50;99.90;;;;;;5074661;28;20494;-78
2022/11/08 02:10:27;;;;;;;5.10;2.78;;;12.60;99.90;;;;;;5091594;28;20016;-78
2022/11/08 02:12:54;;;;;;;3.15;2.42;;;12.30;99.90;;;;;;5074035;28;20032;-78
2022/11/08 02:15:22;;;;;;;3.63;2.63;;;12.30;99.90;;;;;;5091632;28;20062;-79
2022/11/08 02:17:47;;;;;;;3.33;2.22;;;12.30;99.90;;;;;;5091210;28;20036;-78
2022/11/08 02:20:13;;;;;;;3.60;2.58;;;12.40;99.90;;;;;;5091800;28;20024;-77
2022/11/08 02:22:50;;;;;;;2.80;2.50;;;12.20;99.90;;;;;;5095463;28;20389;-78
2022/11/08 02:25:16;;;;;;;3.83;2.58;;;12.20;99.90;;;;;;5095195;28;20476;-78
2022/11/08 02:27:42;;;;;;;3.67;2.67;;;12.20;99.90;;;;;;5095281;28;20024;-77
2022/11/08 02:30:08;;;;;;;3.50;2.40;;;12.10;99.90;;;;;;5095534;28;20073;-78
2022/11/08 02:32:38;;;;;;;4.32;2.55;;;12.10;99.90;;;;;;5094727;28;20028;-78
2022/11/08 02:35:07;;;;;;;3.22;2.70;;;12.00;99.90;;;;;;5095163;28;20048;-78
2022/11/08 02:37:33;;;;;;;4.22;2.58;;;11.90;99.90;;;;;;5095023;28;20427;-78
2022/11/08 02:39:59;;;;;;;5.43;3.10;;;11.80;99.90;;;;;;5094982;28;20074;-78
2022/11/08 02:42:24;;;;;;;5.68;2.90;;;12.10;99.90;;;;;;5094836;28;20430;-77
2022/11/08 02:44:50;;;;;;;5.13;3.40;;;12.20;99.90;;;;;;5095398;28;20020;-78
2022/11/08 02:47:15;;;;;;;5.03;3.50;;;12.50;99.90;;;;;;5094183;28;20103;-78
2022/11/08 02:49:41;;;;;;;5.35;3.20;;;12.70;99.90;;;;;;5094958;28;20384;-78
2022/11/08 02:52:07;;;;;;;4.35;3.13;;;12.70;99.90;;;;;;5094933;28;20126;-77
2022/11/08 02:54:32;;;;;;;4.38;3.08;;;12.60;99.90;;;;;;5094776;28;20031;-78
2022/11/08 02:56:58;;;;;;;5.65;3.60;;;12.60;99.90;;;;;;5094956;28;20498;-77
2022/11/08 02:59:23;;;;;;;4.55;2.90;;;12.70;99.90;;;;;;5094701;28;20027;-78
2022/11/08 03:01:49;;;;;;;4.68;3.40;;;12.90;99.90;;;;;;5094679;28;20105;-76
2022/11/08 03:04:14;;;;;;;4.57;3.28;;;12.50;99.90;;;;;;5094570;28;20024;-78
2022/11/08 03:06:40;;;;;;;4.88;3.67;;;12.40;99.90;;;;;;5094470;28;20035;-77
2022/11/08 03:09:06;;;;;;;5.53;3.60;;;12.80;99.90;;;;;;5094272;28;20028;-78
2022/11/08 03:11:31;;;;;;;5.43;3.20;;;12.60;99.90;;;;;;5094199;28;20028;-78
2022/11/08 03:13:57;;;;;;;5.60;3.08;;;12.60;99.90;;;;;;5094770;28;20435;-78
2022/11/08 03:16:23;;;;;;;6.63;3.38;;;12.40;99.90;;;;;;5093701;28;20067;-78
2022/11/08 03:18:50;;;;;;;5.55;3.50;;;12.40;99.90;;;;;;5094009;28;20097;-78
2022/11/08 03:21:15;;;;;;;4.75;3.60;;;12.50;99.90;;;;;;5094363;28;20555;-78
2022/11/08 03:23:41;;;;;;;3.78;3.38;;;12.70;99.90;;;;;;5094281;28;20103;-78
2022/11/08 03:26:06;;;;;;;6.10;3.28;;;12.50;99.90;;;;;;5094152;28;20544;-78
2022/11/08 03:28:32;;;;;;;7.00;3.40;;;12.40;99.90;;;;;;5094133;28;20024;-78
2022/11/08 03:30:58;;;;;;;5.32;3.60;;;12.50;99.90;;;;;;5093740;28;20053;-78
2022/11/08 03:33:23;;;;;;;7.03;3.80;;;12.50;99.90;;;;;;5092887;28;20046;-78
2022/11/08 03:35:50;;;;;;;4.90;3.75;;;12.40;99.90;;;;;;5093755;28;20101;-78
2022/11/08 03:38:15;;;;;;;4.22;3.17;;;12.30;99.90;;;;;;5093912;28;20040;-78
2022/11/08 03:40:42;;;;;;;5.40;3.35;;;12.20;99.90;;;;;;5093770;28;20020;-78
2022/11/08 03:43:08;;;;;;;5.55;3.30;;;12.30;99.90;;;;;;5093750;28;20031;-78
2022/11/08 03:45:33;;;;;;;7.30;3.20;;;12.30;99.90;;;;;;5093373;28;20073;-77
2022/11/08 03:47:59;;;;;;;6.50;3.60;;;12.30;99.90;;;;;;5094134;28;20039;-78
2022/11/08 03:50:25;;;;;;;6.45;3.63;;;12.30;99.90;;;;;;5093753;28;20016;-77
2022/11/08 03:52:53;;;;;;;6.20;4.10;;;12.40;99.90;;;;;;5093688;28;20487;-78
2022/11/08 03:55:20;;;;;;;4.97;3.33;;;12.50;99.90;;;;;;5093097;28;20031;-78
2022/11/08 03:57:48;;;;;;;6.53;3.70;;;12.50;99.90;;;;;;5093500;28;20036;-77
2022/11/08 04:00:16;;;;;;;5.18;3.30;;;12.40;99.90;;;;;;5093030;28;20024;-78
2022/11/08 04:02:41;;;;;;;5.95;3.92;;;12.40;99.90;;;;;;5093549;28;20036;-78
2022/11/08 04:05:08;;;;;;;7.35;3.75;;;12.40;99.90;;;;;;5093514;28;20027;-78
2022/11/08 04:07:35;;;;;;;5.10;3.70;;;12.40;99.90;;;;;;5093447;28;20036;-78
2022/11/08 04:10:01;;;;;;;4.22;3.38;;;12.30;99.90;;;;;;5093056;28;20572;-78
2022/11/08 04:15:13;;;;;;;4.63;3.80;;;12.30;99.90;;;;;;5092931;28;20073;-78
2022/11/08 04:23:08;;;;;;;4.57;3.47;;;12.10;99.90;;;;;;5093412;28;20408;-78
2022/11/08 04:25:34;;;;;;;4.90;3.72;;;12.20;99.90;;;;;;5092868;28;20476;-78
2022/11/08 04:27:59;;;;;;;7.95;3.42;;;12.40;99.90;;;;;;5092719;28;20056;-78
2022/11/08 04:30:25;;;;;;;3.95;3.38;;;12.10;99.90;;;;;;5093274;28;20422;-77
2022/11/08 04:32:50;;;;;;;4.75;3.55;;;12.20;99.90;;;;;;5092727;28;20028;-78
2022/11/08 04:35:16;;;;;;;4.72;3.30;;;12.10;99.90;;;;;;5092567;28;20121;-78
2022/11/08 04:37:41;;;;;;;4.68;3.17;;;12.50;99.90;;;;;;5092980;28;20507;-77
2022/11/08 04:40:08;;;;;;;3.95;3.15;;;12.10;99.90;;;;;;5092775;28;20066;-78
2022/11/08 04:42:34;;;;;;;5.30;3.60;;;12.10;99.90;;;;;;5091993;28;20028;-78
2022/11/08 04:44:59;;;;;;;5.00;3.28;;;12.10;99.90;;;;;;5092803;28;20484;-77
2022/11/08 04:47:27;;;;;;;5.78;3.38;;;12.40;99.90;;;;;;5092287;28;20070;-78
2022/11/08 04:49:53;;;;;;;6.50;3.20;;;12.20;99.90;;;;;;5092451;28;20077;-78
2022/11/08 04:52:19;;;;;;;8.05;3.75;;;12.10;99.90;;;;;;5092239;28;20155;-77
2022/11/08 04:54:45;;;;;;;6.07;3.20;;;12.10;99.90;;;;;;5091587;28;20028;-78
2022/11/08 04:57:11;;;;;;;5.68;3.20;;;12.20;99.90;;;;;;5092052;28;20077;-78
2022/11/08 04:59:38;;;;;;;4.97;3.25;;;12.20;99.90;;;;;;5092464;28;20103;-78
2022/11/08 05:02:04;;;;;;;3.70;2.80;;;12.20;99.90;;;;;;5092372;28;20535;-78
2022/11/08 05:04:29;;;;;;;6.40;3.70;;;12.20;99.90;;;;;;5091894;28;20093;-79
2022/11/08 05:06:55;;;;;;;5.68;3.30;;;12.30;99.90;;;;;;5092775;28;20069;-79
2022/11/08 05:09:20;;;;;;;4.32;3.22;;;12.00;99.90;;;;;;5092218;28;20024;-80
2022/11/08 05:11:46;;;;;;;5.53;3.40;;;12.00;99.90;;;;;;5073897;28;20028;-80
2022/11/08 05:14:12;;;;;;;5.40;3.08;;;11.90;99.90;;;;;;5092304;28;20035;-79
2022/11/08 05:16:37;;;;;;;6.13;3.80;;;11.90;99.90;;;;;;5092594;28;20019;-80
2022/11/08 05:19:03;;;;;;;6.88;3.45;;;12.00;99.90;;;;;;5092460;28;20028;-81
2022/11/08 05:24:16;;;;;;;4.70;2.97;;;11.90;99.90;;;;;;5092449;28;20523;-80
2022/11/08 05:26:45;;;;;;;5.47;3.20;;;11.90;99.90;;;;;;5091697;28;20377;-79
2022/11/08 05:29:12;;;;;;;5.32;3.33;;;11.90;99.90;;;;;;5092618;28;20016;-80
2022/11/08 05:31:39;;;;;;;4.13;2.80;;;11.90;99.90;;;;;;5091763;28;20048;-80
2022/11/08 05:34:06;;;;;;;5.53;3.10;;;12.10;99.90;;;;;;5092124;28;20109;-80
2022/11/08 05:36:32;;;;;;;9.88;2.95;;;11.90;99.90;;;;;;5091952;28;20048;-80
2022/11/08 05:38:58;;;;;;;6.07;2.95;;;12.10;99.90;;;;;;5092287;28;20052;-80
2022/11/08 05:41:24;;;;;;;5.00;3.00;;;12.00;99.90;;;;;;5091679;28;20074;-80
2022/11/08 05:43:52;;;;;;;4.25;2.72;;;12.00;99.90;;;;;;5091864;28;20396;-80
2022/11/08 05:46:19;;;;;;;4.25;2.85;;;12.00;99.90;;;;;;5092284;28;20047;-79
2022/11/08 05:48:45;;;;;;;3.92;2.78;;;12.00;99.90;;;;;;5091830;28;20059;-79
2022/11/08 05:51:12;;;;;;;7.43;2.78;;;12.10;99.90;;;;;;5091991;28;20028;-79
2022/11/08 05:53:38;;;;;;;4.07;2.50;;;12.10;99.90;;;;;;5091625;28;20052;-79
2022/11/08 05:56:04;;;;;;;4.93;2.38;;;12.30;99.90;;;;;;5092865;28;20089;-80
2022/11/08 05:58:31;;;;;;;4.35;2.70;;;12.10;99.90;;;;;;5095600;28;20553;-79
2022/11/08 06:01:02;;;;;;;4.88;2.72;;;12.10;99.90;;;;;;5096047;28;20080;-79
2022/11/08 06:03:28;;;;;;;2.70;2.40;;;12.20;99.90;;;;;;5095656;28;20437;-79
2022/11/08 06:05:54;;;;;;;5.05;2.20;;;12.20;99.90;;;;;;5095441;28;20032;-79
2022/11/08 06:08:20;;;;;;;3.55;2.40;;;12.30;99.90;;;;;;5095597;28;20488;-80
2022/11/08 06:10:45;;;;;;;3.60;2.22;;;12.30;99.90;;;;;;5095240;28;20388;-79
2022/11/08 06:13:11;;;;;;;3.83;2.55;;;12.40;99.90;;;;;;5095532;28;20020;-80
2022/11/08 06:15:36;;;;;;;4.63;2.42;;;12.50;99.90;;;;;;5095392;28;20547;-79
2022/11/08 06:18:03;;;;;;;5.63;3.00;;;12.60;99.90;;;;;;5095555;28;20047;-79
2022/11/08 06:20:29;;;;;;;3.70;2.40;;;12.20;99.90;;;;;;5095422;28;20024;-80
2022/11/08 06:22:55;;;;;;;3.17;2.05;;;12.30;99.90;;;;;;5095664;28;20024;-80
2022/11/08 06:25:21;;;;;;;3.72;2.10;;;12.50;99.90;;;;;;5095289;28;20032;-80
2022/11/08 06:27:47;;;;;;;3.15;2.25;;;12.20;99.90;;;;;;5095219;28;20047;-79
2022/11/08 06:30:13;;;;;;;3.33;2.60;;;12.30;99.90;;;;;;5095118;28;20496;-79
2022/11/08 06:32:39;;;;;;;2.83;1.90;;;12.30;99.90;;;;;;5094933;28;20034;-79
2022/11/08 06:35:05;;;;;;;5.93;2.38;;;12.40;99.90;;;;;;5094259;28;20044;-79
2022/11/08 06:37:31;;;;;;;3.17;1.98;;;12.50;99.90;;;;;;5094943;28;20081;-79
2022/11/08 06:39:57;;;;;;;6.22;2.03;;;12.70;99.90;;;;;;5094630;28;20016;-79
2022/11/08 06:42:23;;;;;;;2.72;1.80;;;12.70;99.90;;;;;;5094862;28;20492;-80
2022/11/08 06:44:49;;;;;;;3.22;1.75;;;12.80;99.90;;;;;;5094818;28;20021;-79
2022/11/08 06:47:15;;;;;;;4.53;1.92;;;13.20;99.90;;;;;;5095233;28;20042;-79
2022/11/08 06:49:40;;;;;;;3.15;1.50;;;13.20;99.90;;;;;;5094306;28;20388;-79
2022/11/08 06:52:06;;;;;;;2.33;1.75;;;13.30;99.90;;;;;;5095179;28;20101;-79
2022/11/08 06:54:32;;;;;;;3.05;1.63;;;13.10;99.90;;;;;;5094384;28;20496;-79
2022/11/08 06:56:59;;;;;;;4.90;1.70;;;13.20;99.90;;;;;;5094659;28;20043;-80
2022/11/08 06:59:26;;;;;;;3.00;1.70;;;13.40;99.90;;;;;;5093146;28;20522;-81
2022/11/08 07:01:52;;;;;;;2.13;1.40;;;13.70;99.90;;;;;;5094067;28;20043;-80
2022/11/08 07:04:17;;;;;;;5.85;1.75;;;14.20;99.90;;;;;;5094070;28;20016;-83
2022/11/08 07:06:43;;;;;;;3.35;1.60;;;14.00;99.90;;;;;;5094831;28;20024;-83
2022/11/08 07:09:09;;;;;;;1.75;1.38;;;14.40;99.90;;;;;;5075341;28;20435;-82
2022/11/08 07:11:35;;;;;;;3.78;1.50;;;14.40;99.90;;;;;;5093296;28;20031;-82
2022/11/08 07:14:00;;;;;;;3.42;1.65;;;14.20;99.90;;;;;;5094160;28;20488;-82
2022/11/08 07:16:26;;;;;;;3.13;1.92;;;14.20;99.90;;;;;;5075489;28;20036;-81
2022/11/08 07:18:54;;;;;;;2.08;1.33;;;14.20;99.90;;;;;;5094650;28;20028;-82
2022/11/08 07:21:20;;;;;;;3.60;2.08;;;14.50;99.90;;;;;;5094087;28;20016;-81
2022/11/08 07:23:47;;;;;;;3.40;1.58;;;15.00;99.90;;;;;;5093806;28;20111;-82
2022/11/08 07:26:13;;;;;;;5.53;1.70;;;15.10;99.90;;;;;;5094275;28;20073;-82
2022/11/08 07:28:39;;;;;;;3.30;2.28;;;15.10;99.90;;;;;;5093952;28;20028;-82
2022/11/08 07:31:06;;;;;;;2.58;1.70;;;15.10;99.90;;;;;;5094138;28;20016;-82
2022/11/08 07:33:32;;;;;;;2.78;2.00;;;15.20;99.90;;;;;;5093958;28;20484;-82
2022/11/08 07:35:58;;;;;;;2.40;1.50;;;15.40;99.90;;;;;;5093779;28;20051;-82
2022/11/08 07:38:25;;;;;;;4.00;1.83;;;15.70;99.90;;;;;;5093429;28;20040;-82
2022/11/08 07:40:53;;;;;;;2.63;1.70;;;16.30;99.90;;;;;;5093848;28;20024;-82
2022/11/08 07:43:19;;;;;;;1.73;1.17;;;17.60;99.90;;;;;;5093841;28;20484;-82
2022/11/08 07:45:45;;;;;;;3.00;1.70;;;18.00;99.90;;;;;;5093626;28;20025;-82
2022/11/08 07:48:12;;;;;;;3.50;1.45;;;17.40;99.90;;;;;;5094187;28;20103;-82
2022/11/08 07:50:39;;;;;;;2.38;1.48;;;16.90;99.90;;;;;;5093085;28;20021;-82
2022/11/08 07:53:04;;;;;;;5.32;1.73;;;16.70;99.90;;;;;;5093481;28;20024;-82
2022/11/08 07:55:30;;;;;;;2.08;1.60;;;16.70;99.90;;;;;;5093618;28;20024;-82
2022/11/08 07:58:01;;;;;;;4.57;1.55;;;16.90;99.90;;;;;;5093298;28;20036;-82
2022/11/08 08:00:31;;;;;;;2.10;1.70;;;18.00;99.90;;;;;;5093745;28;20036;-82
2022/11/08 08:02:58;;;;;;;2.38;1.75;;;18.30;99.90;;;;;;5093400;28;20043;-82
2022/11/08 08:05:25;;;;;;;2.17;1.75;;;18.80;99.90;;;;;;5093137;28;20036;-82
2022/11/08 08:07:50;;;;;;;2.33;2.00;;;18.50;99.90;;;;;;5093376;28;20099;-83
2022/11/08 08:10:16;;;;;;;2.45;2.00;;;17.90;99.90;;;;;;5093220;28;20111;-81
2022/11/08 08:12:42;;;;;;;6.28;2.75;;;17.40;99.90;;;;;;5092995;28;20081;-81
2022/11/08 08:15:08;;;;;;;4.72;2.58;;;16.80;99.90;;;;;;5093402;28;20106;-81
2022/11/08 08:17:33;;;;;;;4.85;2.47;;;16.00;99.90;;;;;;5092576;28;20047;-81
2022/11/08 08:19:59;;;;;;;5.07;2.90;;;16.00;99.90;;;;;;5091935;28;20496;-80
2022/11/08 08:22:24;;;;;;;5.90;2.90;;;16.10;99.90;;;;;;5092846;28;20092;-81
2022/11/08 08:24:50;;;;;;;5.63;3.17;;;16.50;99.90;;;;;;5093066;28;20099;-80
2022/11/08 08:27:15;;;;;;;4.40;3.13;;;17.30;99.90;;;;;;5093149;28;20042;-80
2022/11/08 08:29:41;;;;;;;6.03;3.17;;;18.30;99.90;;;;;;5074339;28;20036;-80
2022/11/08 08:32:07;;;;;;;6.47;3.40;;;18.80;99.90;;;;;;5092531;28;20016;-81
2022/11/08 08:34:32;;;;;;;5.82;3.10;;;18.50;99.90;;;;;;5092448;28;20020;-81
2022/11/08 08:36:58;;;;;;;4.80;2.90;;;19.70;99.90;;;;;;5074279;28;20032;-81
2022/11/08 08:39:23;;;;;;;4.22;2.50;;;23.00;99.90;;;;;;5092497;28;20028;-84
2022/11/08 08:41:49;;;;;;;5.57;3.15;;;22.20;99.90;;;;;;5092691;28;20472;-83
2022/11/08 08:44:14;;;;;;;6.22;2.80;;;21.50;99.90;;;;;;5092824;28;20024;-84
2022/11/08 08:46:40;;;;;;;3.53;2.40;;;24.70;99.90;;;;;;5093151;28;20073;-84
2022/11/08 08:49:05;;;;;;;4.07;2.70;;;22.80;99.90;;;;;;5091983;28;20362;-81
2022/11/08 08:51:31;;;;;;;2.58;1.92;;;28.20;99.90;;;;;;5092358;28;20024;-82
2022/11/08 08:53:57;;;;;;;3.03;2.30;;;28.90;99.90;;;;;;5092344;28;20031;-81
2022/11/08 08:56:23;;;;;;;2.50;1.98;;;31.70;99.90;;;;;;5092185;28;20024;-82
2022/11/08 08:58:49;;;;;;;2.03;1.85;;;29.10;99.90;;;;;;5092870;28;20392;-82
2022/11/08 09:01:15;;;;;;;2.83;2.10;;;26.30;99.90;;;;;;5092356;28;20495;-82
2022/11/08 09:03:41;;;;;;;2.92;2.05;;;24.50;99.90;;;;;;5092365;28;20395;-81
2022/11/08 09:06:06;;;;;;;2.45;2.00;;;23.20;99.90;;;;;;5092299;28;20020;-81
2022/11/08 09:08:32;;;;;;;3.65;2.25;;;24.50;99.90;;;;;;5091807;28;20020;-81
2022/11/08 09:11:00;;;;;;;2.53;1.90;;;23.50;99.90;;;;;;5092046;28;20051;-81
2022/11/08 09:13:27;;;;;;;2.05;1.80;;;21.50;99.90;;;;;;5074943;28;20012;-81
2022/11/08 09:15:53;;;;;;;3.42;2.00;;;22.60;99.90;;;;;;5092338;28;20024;-84
2022/11/08 09:18:19;;;;;;;4.40;2.15;;;26.70;99.90;;;;;;5091750;28;20476;-84
2022/11/08 09:20:46;;;;;;;2.55;1.70;;;28.50;99.90;;;;;;5092325;28;20051;-84
2022/11/08 09:23:13;;;;;;;2.35;1.83;;;28.60;99.90;;;;;;5092541;28;20529;-81
2022/11/08 09:25:38;;;;;;;3.45;1.85;;;27.90;99.90;;;;;;5091480;28;20027;-85
2022/11/08 09:28:04;;;;;;;2.03;1.80;;;27.80;99.90;;;;;;5092553;28;20032;-83
2022/11/08 09:30:30;;;;;;;7.43;1.85;;;29.70;99.90;;;;;;5092836;28;20480;-83
2022/11/08 09:32:56;;;;;;;2.15;1.83;;;29.60;99.90;;;;;;5095884;28;20103;-83
2022/11/08 09:35:22;;;;;;;2.17;1.73;;;29.70;99.90;;;;;;5096147;28;20063;-83
2022/11/08 09:37:47;;;;;;;2.20;1.98;;;30.10;99.90;;;;;;5096131;28;20037;-83
2022/11/08 09:40:19;;;;;;;1.67;1.58;;;30.90;99.90;;;;;;5096092;28;20408;-83
2022/11/08 09:43:16;;;;;;;2.55;1.92;;;25.90;99.90;;;;;;5096636;28;20060;-83
2022/11/08 09:45:46;;;;;;;2.67;1.80;;;26.10;99.90;;;;;;5095560;28;20107;-83
2022/11/08 09:48:40;;;;;;;2.50;1.80;;;26.80;99.90;;;;;;5096246;28;20106;-83
2022/11/08 09:51:11;;;;;;;2.20;1.92;;;24.30;99.90;;;;;;5095985;28;20445;-83
2022/11/08 09:53:48;;;;;;;3.33;1.98;;;22.80;99.90;;;;;;5095986;28;20039;-83
2022/11/08 09:56:20;;;;;;;3.70;1.80;;;27.80;99.90;;;;;;5095858;28;20024;-83
2022/11/08 09:58:53;;;;;;;3.05;1.60;;;31.70;99.90;;;;;;5096843;28;20056;-83
2022/11/08 10:01:21;;;;;;;2.20;1.70;;;27.90;99.90;;;;;;5095540;28;20388;-83
2022/11/08 10:03:52;;;;;;;2.17;1.80;;;29.40;99.90;;;;;;5095714;28;20076;-83
2022/11/08 10:06:30;;;;;;;2.00;1.70;;;31.00;99.90;;;;;;5095865;28;20074;-83
2022/11/08 10:09:20;;;;;;;2.35;1.92;;;26.80;99.90;;;;;;5095739;28;20024;-83
2022/11/08 10:12:13;;;;;;;3.00;1.70;;;26.30;99.90;;;;;;5095203;28;20066;-83
2022/11/08 10:14:57;;;;;;;3.17;2.00;;;24.30;99.90;;;;;;5096485;28;20028;-83
2022/11/08 10:17:41;;;;;;;2.13;1.48;;;26.90;99.90;;;;;;5094829;28;20476;-83
2022/11/08 10:20:15;;;;;;;3.30;1.80;;;26.30;99.90;;;;;;5095675;28;20031;-83
2022/11/08 10:22:57;;;;;;;3.58;1.70;;;27.40;99.90;;;;;;5095271;28;20081;-83
2022/11/08 10:25:28;;;;;;;5.07;1.88;;;27.50;99.90;;;;;;5095364;28;20024;-83
2022/11/08 10:27:58;;;;;;;1.98;1.75;;;27.50;99.90;;;;;;5095456;28;20067;-83
2022/11/08 10:30:32;;;;;;;4.55;1.60;;;30.80;99.90;;;;;;5094929;28;20020;-84
2022/11/08 10:32:57;;;;;;;2.28;1.65;;;30.30;99.90;;;;;;5095007;28;20032;-84
2022/11/08 10:35:30;;;;;;;3.17;1.77;;;30.60;99.90;;;;;;5095166;28;20055;-84
2022/11/08 10:37:58;;;;;;;1.50;1.40;;;31.60;99.90;;;;;;5094984;28;20185;-83
2022/11/08 10:40:46;;;;;;;3.10;1.73;;;29.30;99.90;;;;;;5095398;28;20039;-84
2022/11/08 10:43:23;;;;;;;3.90;1.90;;;30.00;99.90;;;;;;5095012;28;20032;-83
2022/11/08 10:45:49;;;;;;;2.30;1.75;;;27.30;99.90;;;;;;5094785;28;20516;-83
2022/11/08 10:48:14;;;;;;;2.65;1.80;;;24.80;99.90;;;;;;5095333;28;20024;-83
2022/11/08 10:50:49;;;;;;;3.45;1.70;;;22.60;99.90;;;;;;5094673;28;20568;-83
2022/11/08 10:53:24;;;;;;;2.42;1.95;;;22.80;99.90;;;;;;5094956;28;20041;-83
2022/11/08 10:55:57;;;;;;;2.25;1.77;;;21.60;99.90;;;;;;5094848;28;20035;-83
2022/11/08 10:58:39;;;;;;;2.47;1.50;;;23.40;99.90;;;;;;5094638;28;20040;-83
2022/11/08 11:01:21;;;;;;;2.17;1.75;;;22.40;99.90;;;;;;5094330;28;20099;-83
2022/11/08 11:03:49;;;;;;;2.30;1.48;;;24.90;99.90;;;;;;5094990;28;20020;-83
2022/11/08 11:06:20;;;;;;;3.40;1.70;;;24.20;99.90;;;;;;5094817;28;20032;-82
2022/11/08 11:08:53;;;;;;;3.55;2.28;;;28.20;99.90;;;;;;5094397;28;20031;-83
2022/11/08 11:11:23;;;;;;;3.22;1.80;;;29.80;99.90;;;;;;5094629;28;20032;-83
2022/11/08 11:14:13;;;;;;;1.80;1.63;;;29.70;99.90;;;;;;5094124;28;20025;-83
2022/11/08 11:16:52;;;;;;;3.10;1.50;;;27.20;99.90;;;;;;5094150;28;20103;-83
2022/11/08 11:19:18;;;;;;;3.80;1.92;;;25.60;99.90;;;;;;5076173;28;20396;-83
2022/11/08 11:21:46;;;;;;;3.78;2.00;;;27.30;99.90;;;;;;5094182;28;20039;-82
2022/11/08 11:24:19;;;;;;;2.83;1.80;;;24.50;99.90;;;;;;5094136;28;20032;-83
2022/11/08 11:26:57;;;;;;;5.70;2.00;;;23.30;99.90;;;;;;5094401;28;20404;-83
2022/11/08 11:29:27;;;;;;;1.98;1.40;;;22.50;99.90;;;;;;5093799;28;20381;-83
2022/11/08 11:31:53;;;;;;;2.95;1.60;;;22.30;99.90;;;;;;5094025;28;20012;-83
2022/11/08 11:34:31;;;;;;;2.67;1.55;;;22.30;99.90;;;;;;5094468;28;20032;-83
2022/11/08 11:36:56;;;;;;;3.13;1.70;;;26.10;99.90;;;;;;5093909;28;20043;-82
2022/11/08 11:39:44;;;;;;;5.38;1.88;;;27.50;99.90;;;;;;5093965;28;20024;-83
2022/11/08 11:42:28;;;;;;;3.55;1.50;;;29.60;99.90;;;;;;5094199;28;20389;-83
2022/11/08 11:45:05;;;;;;;3.28;1.60;;;27.60;99.90;;;;;;5093847;28;20095;-83
2022/11/08 11:47:49;;;;;;;2.08;1.65;;;26.50;99.90;;;;;;5093771;28;20065;-83
2022/11/08 11:50:35;;;;;;;2.97;1.88;;;26.80;99.90;;;;;;5093684;28;20032;-83
2022/11/08 11:53:15;;;;;;;1.90;1.50;;;30.10;99.90;;;;;;5093212;28;20035;-83
2022/11/08 11:55:58;;;;;;;2.33;1.80;;;28.70;99.90;;;;;;5093657;28;20480;-83
2022/11/08 11:58:45;;;;;;;2.97;1.77;;;28.30;99.90;;;;;;5093281;28;20044;-83
2022/11/08 12:01:27;;;;;;;2.17;1.70;;;30.00;99.90;;;;;;5093414;28;20024;-82
2022/11/08 12:04:14;;;;;;;2.42;1.80;;;29.40;99.90;;;;;;5093483;28;20446;-83
2022/11/08 12:07:00;;;;;;;2.00;1.60;;;30.00;99.90;;;;;;5093587;28;20115;-83
2022/11/08 12:09:52;;;;;;;2.15;1.40;;;28.90;99.90;;;;;;5093403;28;20047;-83
2022/11/08 12:12:32;;;;;;;2.58;1.70;;;28.60;99.90;;;;;;5082369;28;20146;-83
2022/11/08 12:15:08;;;;;;;3.15;1.92;;;28.90;99.90;;;;;;5092159;28;20020;-83
2022/11/08 12:18:13;;;;;;;2.88;1.98;;;26.70;99.90;;;;;;5093787;28;20067;-83
2022/11/08 12:20:47;;;;;;;4.75;1.98;;;28.70;99.90;;;;;;5088550;28;20040;-83
2022/11/08 12:23:37;;;;;;;3.55;1.70;;;28.20;99.90;;;;;;5093439;28;20035;-83
2022/11/08 12:26:05;;;;;;;2.80;1.80;;;26.50;99.90;;;;;;5093109;28;20057;-83
2022/11/08 12:28:37;;;;;;;4.03;2.00;;;28.80;99.90;;;;;;5093002;28;20182;-83
2022/11/08 12:31:15;;;;;;;2.90;2.60;;;29.70;99.90;;;;;;5092989;28;20039;-83
2022/11/08 12:34:02;;;;;;;3.75;1.90;;;28.50;99.90;;;;;;5092677;28;20028;-83
2022/11/08 12:36:49;;;;;;;3.00;1.83;;;30.30;99.90;;;;;;5092674;28;20073;-83
2022/11/08 12:39:31;;;;;;;2.50;2.03;;;29.60;99.90;;;;;;5093173;28;20024;-83
2022/11/08 12:42:24;;;;;;;3.85;1.95;;;30.50;99.90;;;;;;5092762;28;20511;-82
2022/11/08 12:45:18;;;;;;;4.00;2.00;;;29.50;99.90;;;;;;5092868;28;20039;-83
2022/11/08 12:48:03;;;;;;;3.40;2.60;;;29.10;99.90;;;;;;5092717;28;20048;-83
2022/11/08 12:50:42;;;;;;;4.57;3.00;;;27.70;99.90;;;;;;5092617;28;20024;-83
2022/11/08 12:53:33;;;;;;;3.10;2.10;;;25.80;99.90;;;;;;5092946;28;20031;-83
2022/11/08 12:56:02;;;;;;;3.63;2.83;;;26.40;99.90;;;;;;5092359;28;20024;-83
2022/11/08 12:58:40;;;;;;;4.07;2.47;;;27.20;99.90;;;;;;5092302;28;20036;-83
2022/11/08 13:01:13;;;;;;;4.38;2.20;;;24.80;99.90;;;;;;5092651;28;20027;-84
2022/11/08 13:03:42;;;;;;;2.78;1.95;;;24.10;99.90;;;;;;5092435;28;20081;-83
2022/11/08 13:06:45;;;;;;;3.22;1.90;;;23.20;99.90;;;;;;5092370;28;20395;-83
2022/11/08 13:09:38;;;;;;;3.22;2.15;;;23.40;99.90;;;;;;5093255;28;20014;-82
2022/11/08 13:12:28;;;;;;;2.95;2.00;;;23.10;99.90;;;;;;5092405;28;20043;-82
2022/11/08 13:14:54;;;;;;;4.38;2.10;;;22.10;99.90;;;;;;5092313;28;20028;-83
2022/11/08 13:17:25;;;;;;;4.35;2.33;;;23.20;99.90;;;;;;5091897;28;20147;-82
2022/11/08 13:19:54;;;;;;;3.80;2.55;;;22.90;99.90;;;;;;5092526;28;20027;-82